sensor_id;sensor_type;location;lat;lon;timestamp;temperature;humidity
14962;DHT22;56489;53.166;10.864;2022-12-07T00:01:15;2.80;99.90
14962;DHT22;56489;53.166;10.864;2022-12-07T00:03:43;2.90;99.90
14962;DHT22;56489;53.166;10.864;2022-12-07T00:06:11;2.90;99.90
14962;DHT22;56489;53.166;10.864;2022-12-07T00:08:38;2.90;99.90
14962;DHT22;56489;53.166;10.864;2022-12-07T00:11:06;2.90;99.90
14962;DHT22;56489;53.166;10.864;2022-12-07T00:13:34;2.90;99.90
14962;DHT22;56489;53.166;10.864;2022-12-07T00:16:01;3.00;99.90
14962;DHT22;56489;53.166;10.864;2022-12-07T00:18:29;3.00;99.90
14962;DHT22;56489;53.166;10.864;2022-12-07T00:21:14;3.00;99.90
14962;DHT22;56489;53.166;10.864;2022-12-07T00:23:42;3.00;99.90
14962;DHT22;56489;53.166;10.864;2022-12-07T00:26:19;3.00;99.90
14962;DHT22;56489;53.166;10.864;2022-12-07T00:28:47;3.00;99.90
14962;DHT22;56489;53.166;10.864;2022-12-07T00:31:15;3.00;99.90
14962;DHT22;56489;53.166;10.864;2022-12-07T00:33:42;3.00;99.90
14962;DHT22;56489;53.166;10.864;2022-12-07T00:36:09;3.10;99.90
14962;DHT22;56489;53.166;10.864;2022-12-07T00:38:37;3.10;99.90
14962;DHT22;56489;53.166;10.864;2022-12-07T00:41:05;3.20;99.90
14962;DHT22;56489;53.166;10.864;2022-12-07T00:43:32;3.10;99.90
14962;DHT22;56489;53.166;10.864;2022-12-07T00:45:59;3.10;99.90
14962;DHT22;56489;53.166;10.864;2022-12-07T00:48:26;3.10;99.90
14962;DHT22;56489;53.166;10.864;2022-12-07T00:50:53;3.10;99.90
14962;DHT22;56489;53.166;10.864;2022-12-07T00:53:21;3.10;99.90
14962;DHT22;56489;53.166;10.864;2022-12-07T00:55:48;2.20;99.90
14962;DHT22;56489;53.166;10.864;2022-12-07T00:58:15;3.10;99.90
14962;DHT22;56489;53.166;10.864;2022-12-07T01:00:42;3.20;99.90
14962;DHT22;56489;53.166;10.864;2022-12-07T01:03:09;3.20;99.90
14962;DHT22;56489;53.166;10.864;2022-12-07T01:05:37;3.20;99.90
14962;DHT22;56489;53.166;10.864;2022-12-07T01:08:03;3.20;99.90
14962;DHT22;56489;53.166;10.864;2022-12-07T01:10:30;3.20;99.90
14962;DHT22;56489;53.166;10.864;2022-12-07T01:12:58;3.20;99.90
14962;DHT22;56489;53.166;10.864;2022-12-07T01:15:25;3.30;99.90
14962;DHT22;56489;53.166;10.864;2022-12-07T01:17:52;3.30;99.90
14962;DHT22;56489;53.166;10.864;2022-12-07T01:20:21;3.40;99.90
14962;DHT22;56489;53.166;10.864;2022-12-07T01:22:47;3.30;99.90
14962;DHT22;56489;53.166;10.864;2022-12-07T01:25:14;3.40;99.90
14962;DHT22;56489;53.166;10.864;2022-12-07T01:27:41;3.40;99.90
14962;DHT22;56489;53.166;10.864;2022-12-07T01:30:09;3.40;99.90
14962;DHT22;56489;53.166;10.864;2022-12-07T01:32:36;3.40;99.90
14962;DHT22;56489;53.166;10.864;2022-12-07T01:35:03;3.40;99.90
14962;DHT22;56489;53.166;10.864;2022-12-07T01:37:33;3.40;99.90
14962;DHT22;56489;53.166;10.864;2022-12-07T01:40:00;3.50;99.90
14962;DHT22;56489;53.166;10.864;2022-12-07T01:42:28;3.50;99.90
14962;DHT22;56489;53.166;10.864;2022-12-07T01:47:41;3.50;99.90
14962;DHT22;56489;53.166;10.864;2022-12-07T01:50:08;3.50;99.90
14962;DHT22;56489;53.166;10.864;2022-12-07T01:52:35;3.50;99.90
14962;DHT22;56489;53.166;10.864;2022-12-07T01:55:07;2.80;99.90
14962;DHT22;56489;53.166;10.864;2022-12-07T01:57:36;3.50;99.90
14962;DHT22;56489;53.166;10.864;2022-12-07T02:00:03;3.60;99.90
14962;DHT22;56489;53.166;10.864;2022-12-07T02:02:32;3.60;99.90
14962;DHT22;56489;53.166;10.864;2022-12-07T02:05:00;3.60;99.90
14962;DHT22;56489;53.166;10.864;2022-12-07T02:07:27;3.60;99.90
14962;DHT22;56489;53.166;10.864;2022-12-07T02:09:55;3.60;99.90
14962;DHT22;56489;53.166;10.864;2022-12-07T02:12:21;3.60;99.90
14962;DHT22;56489;53.166;10.864;2022-12-07T02:14:50;3.60;99.90
14962;DHT22;56489;53.166;10.864;2022-12-07T02:25:08;3.70;99.90
14962;DHT22;56489;53.166;10.864;2022-12-07T02:27:45;3.70;99.90
14962;DHT22;56489;53.166;10.864;2022-12-07T02:30:20;3.70;99.90
14962;DHT22;56489;53.166;10.864;2022-12-07T02:32:57;3.70;99.90
14962;DHT22;56489;53.166;10.864;2022-12-07T02:35:33;3.70;99.90
14962;DHT22;56489;53.166;10.864;2022-12-07T02:38:12;3.80;99.90
14962;DHT22;56489;53.166;10.864;2022-12-07T02:40:48;3.80;99.90
14962;DHT22;56489;53.166;10.864;2022-12-07T02:43:16;3.80;99.90
14962;DHT22;56489;53.166;10.864;2022-12-07T02:45:44;3.80;99.90
14962;DHT22;56489;53.166;10.864;2022-12-07T02:48:13;3.80;99.90
14962;DHT22;56489;53.166;10.864;2022-12-07T02:50:50;3.90;99.90
14962;DHT22;56489;53.166;10.864;2022-12-07T02:53:33;3.80;99.90
14962;DHT22;56489;53.166;10.864;2022-12-07T02:56:02;3.80;99.90
14962;DHT22;56489;53.166;10.864;2022-12-07T03:01:17;3.80;99.90
14962;DHT22;56489;53.166;10.864;2022-12-07T03:03:48;3.80;99.90
14962;DHT22;56489;53.166;10.864;2022-12-07T03:06:22;3.80;99.90
14962;DHT22;56489;53.166;10.864;2022-12-07T03:08:57;3.80;99.90
14962;DHT22;56489;53.166;10.864;2022-12-07T03:14:45;3.80;99.90
14962;DHT22;56489;53.166;10.864;2022-12-07T03:16:58;3.90;99.90
14962;DHT22;56489;53.166;10.864;2022-12-07T03:19:29;3.90;99.90
14962;DHT22;56489;53.166;10.864;2022-12-07T03:22:00;3.90;99.90
14962;DHT22;56489;53.166;10.864;2022-12-07T03:24:29;3.90;99.90
14962;DHT22;56489;53.166;10.864;2022-12-07T03:26:59;3.90;99.90
14962;DHT22;56489;53.166;10.864;2022-12-07T03:29:35;3.90;99.90
14962;DHT22;56489;53.166;10.864;2022-12-07T03:32:12;3.90;99.90
14962;DHT22;56489;53.166;10.864;2022-12-07T03:34:43;3.80;99.90
14962;DHT22;56489;53.166;10.864;2022-12-07T03:40:00;3.70;99.90
14962;DHT22;56489;53.166;10.864;2022-12-07T03:42:28;3.60;99.90
14962;DHT22;56489;53.166;10.864;2022-12-07T03:47:34;3.70;99.90
14962;DHT22;56489;53.166;10.864;2022-12-07T03:50:06;3.70;99.90
14962;DHT22;56489;53.166;10.864;2022-12-07T03:55:20;3.80;99.90
14962;DHT22;56489;53.166;10.864;2022-12-07T03:57:49;3.80;99.90
14962;DHT22;56489;53.166;10.864;2022-12-07T04:00:18;3.90;99.90
14962;DHT22;56489;53.166;10.864;2022-12-07T04:02:45;3.80;99.90
14962;DHT22;56489;53.166;10.864;2022-12-07T04:05:11;3.90;99.90
14962;DHT22;56489;53.166;10.864;2022-12-07T04:07:38;3.90;99.90
14962;DHT22;56489;53.166;10.864;2022-12-07T04:10:06;3.90;99.90
14962;DHT22;56489;53.166;10.864;2022-12-07T04:12:32;3.90;99.90
14962;DHT22;56489;53.166;10.864;2022-12-07T04:14:59;3.90;99.90
14962;DHT22;56489;53.166;10.864;2022-12-07T04:17:26;3.90;99.90
14962;DHT22;56489;53.166;10.864;2022-12-07T04:19:52;3.90;99.90
14962;DHT22;56489;53.166;10.864;2022-12-07T04:22:19;3.90;99.90
14962;DHT22;56489;53.166;10.864;2022-12-07T04:24:46;3.80;99.90
14962;DHT22;56489;53.166;10.864;2022-12-07T04:27:12;3.80;99.90
14962;DHT22;56489;53.166;10.864;2022-12-07T04:29:39;3.80;99.90
14962;DHT22;56489;53.166;10.864;2022-12-07T04:32:05;3.70;99.90
14962;DHT22;56489;53.166;10.864;2022-12-07T04:34:32;3.70;99.90
14962;DHT22;56489;53.166;10.864;2022-12-07T04:36:59;3.70;99.90
14962;DHT22;56489;53.166;10.864;2022-12-07T04:39:27;3.70;99.90
14962;DHT22;56489;53.166;10.864;2022-12-07T04:41:54;3.70;99.90
14962;DHT22;56489;53.166;10.864;2022-12-07T04:44:21;3.70;99.90
14962;DHT22;56489;53.166;10.864;2022-12-07T04:46:48;3.70;99.90
14962;DHT22;56489;53.166;10.864;2022-12-07T04:49:15;3.70;99.90
14962;DHT22;56489;53.166;10.864;2022-12-07T04:51:42;3.70;99.90
14962;DHT22;56489;53.166;10.864;2022-12-07T04:54:08;3.60;99.90
14962;DHT22;56489;53.166;10.864;2022-12-07T04:56:35;3.60;99.90
14962;DHT22;56489;53.166;10.864;2022-12-07T04:59:02;3.60;99.90
14962;DHT22;56489;53.166;10.864;2022-12-07T05:01:30;3.60;99.90
14962;DHT22;56489;53.166;10.864;2022-12-07T05:03:56;3.60;99.90
14962;DHT22;56489;53.166;10.864;2022-12-07T05:06:23;3.60;99.90
14962;DHT22;56489;53.166;10.864;2022-12-07T05:08:50;3.50;99.90
14962;DHT22;56489;53.166;10.864;2022-12-07T05:11:16;3.50;99.90
14962;DHT22;56489;53.166;10.864;2022-12-07T05:14:03;3.50;99.90
14962;DHT22;56489;53.166;10.864;2022-12-07T05:16:29;3.50;99.90
14962;DHT22;56489;53.166;10.864;2022-12-07T05:18:57;3.40;99.90
14962;DHT22;56489;53.166;10.864;2022-12-07T05:21:23;3.30;99.90
14962;DHT22;56489;53.166;10.864;2022-12-07T05:23:50;3.20;99.90
14962;DHT22;56489;53.166;10.864;2022-12-07T05:26:17;3.20;99.90
14962;DHT22;56489;53.166;10.864;2022-12-07T05:28:44;3.10;99.90
14962;DHT22;56489;53.166;10.864;2022-12-07T05:31:10;3.00;99.90
14962;DHT22;56489;53.166;10.864;2022-12-07T05:33:37;2.90;99.90
14962;DHT22;56489;53.166;10.864;2022-12-07T05:36:04;2.90;99.90
14962;DHT22;56489;53.166;10.864;2022-12-07T05:38:33;2.90;99.90
14962;DHT22;56489;53.166;10.864;2022-12-07T05:41:00;2.80;99.90
14962;DHT22;56489;53.166;10.864;2022-12-07T05:43:28;2.80;99.90
14962;DHT22;56489;53.166;10.864;2022-12-07T05:45:55;2.80;99.90
14962;DHT22;56489;53.166;10.864;2022-12-07T05:48:21;2.80;99.90
14962;DHT22;56489;53.166;10.864;2022-12-07T05:50:49;2.70;99.90
14962;DHT22;56489;53.166;10.864;2022-12-07T05:53:16;2.70;99.90
14962;DHT22;56489;53.166;10.864;2022-12-07T05:55:48;2.70;99.90
14962;DHT22;56489;53.166;10.864;2022-12-07T05:58:14;2.70;99.90
14962;DHT22;56489;53.166;10.864;2022-12-07T06:01:00;2.80;99.90
14962;DHT22;56489;53.166;10.864;2022-12-07T06:03:27;2.70;99.90
14962;DHT22;56489;53.166;10.864;2022-12-07T06:05:54;2.70;99.90
14962;DHT22;56489;53.166;10.864;2022-12-07T06:08:21;2.70;99.90
14962;DHT22;56489;53.166;10.864;2022-12-07T06:10:48;2.60;99.90
14962;DHT22;56489;53.166;10.864;2022-12-07T06:13:34;2.60;99.90
14962;DHT22;56489;53.166;10.864;2022-12-07T06:16:02;2.50;99.90
14962;DHT22;56489;53.166;10.864;2022-12-07T06:18:28;2.50;99.90
14962;DHT22;56489;53.166;10.864;2022-12-07T06:20:54;2.40;99.90
14962;DHT22;56489;53.166;10.864;2022-12-07T06:23:21;2.40;99.90
14962;DHT22;56489;53.166;10.864;2022-12-07T06:25:48;2.30;99.90
14962;DHT22;56489;53.166;10.864;2022-12-07T06:28:14;2.20;99.90
14962;DHT22;56489;53.166;10.864;2022-12-07T06:30:41;2.20;99.90
14962;DHT22;56489;53.166;10.864;2022-12-07T06:33:08;2.10;99.90
14962;DHT22;56489;53.166;10.864;2022-12-07T06:35:35;2.10;99.90
14962;DHT22;56489;53.166;10.864;2022-12-07T06:38:01;2.10;99.90
14962;DHT22;56489;53.166;10.864;2022-12-07T06:40:28;2.00;99.90
14962;DHT22;56489;53.166;10.864;2022-12-07T06:42:55;2.00;99.90
14962;DHT22;56489;53.166;10.864;2022-12-07T06:45:21;1.90;99.90
14962;DHT22;56489;53.166;10.864;2022-12-07T06:47:48;1.90;99.90
14962;DHT22;56489;53.166;10.864;2022-12-07T06:50:15;1.80;99.90
14962;DHT22;56489;53.166;10.864;2022-12-07T06:52:41;1.70;99.90
14962;DHT22;56489;53.166;10.864;2022-12-07T06:55:08;1.70;99.90
14962;DHT22;56489;53.166;10.864;2022-12-07T06:57:36;1.60;99.90
14962;DHT22;56489;53.166;10.864;2022-12-07T07:00:03;1.60;99.90
14962;DHT22;56489;53.166;10.864;2022-12-07T07:02:30;1.60;99.90
14962;DHT22;56489;53.166;10.864;2022-12-07T07:04:57;1.60;99.90
14962;DHT22;56489;53.166;10.864;2022-12-07T07:07:24;1.50;99.90
14962;DHT22;56489;53.166;10.864;2022-12-07T07:09:50;1.60;99.90
14962;DHT22;56489;53.166;10.864;2022-12-07T07:12:17;1.50;99.90
14962;DHT22;56489;53.166;10.864;2022-12-07T07:14:44;1.60;99.90
14962;DHT22;56489;53.166;10.864;2022-12-07T07:17:10;1.50;99.90
14962;DHT22;56489;53.166;10.864;2022-12-07T07:19:37;1.50;99.90
14962;DHT22;56489;53.166;10.864;2022-12-07T07:22:04;1.50;99.90
14962;DHT22;56489;53.166;10.864;2022-12-07T07:24:31;1.50;99.90
14962;DHT22;56489;53.166;10.864;2022-12-07T07:26:57;1.50;99.90
14962;DHT22;56489;53.166;10.864;2022-12-07T07:29:25;1.50;99.90
14962;DHT22;56489;53.166;10.864;2022-12-07T07:31:51;1.50;99.90
14962;DHT22;56489;53.166;10.864;2022-12-07T07:34:18;1.50;99.90
14962;DHT22;56489;53.166;10.864;2022-12-07T07:36:44;1.50;99.90
14962;DHT22;56489;53.166;10.864;2022-12-07T07:39:11;1.50;99.90
14962;DHT22;56489;53.166;10.864;2022-12-07T07:41:39;1.50;99.90
14962;DHT22;56489;53.166;10.864;2022-12-07T07:44:05;1.50;99.90
14962;DHT22;56489;53.166;10.864;2022-12-07T07:46:32;1.50;99.90
14962;DHT22;56489;53.166;10.864;2022-12-07T07:48:59;1.50;99.90
14962;DHT22;56489;53.166;10.864;2022-12-07T07:51:27;1.50;99.90
14962;DHT22;56489;53.166;10.864;2022-12-07T07:53:53;1.60;99.90
14962;DHT22;56489;53.166;10.864;2022-12-07T07:56:20;1.60;99.90
14962;DHT22;56489;53.166;10.864;2022-12-07T07:58:47;1.60;99.90
14962;DHT22;56489;53.166;10.864;2022-12-07T08:01:14;1.60;99.90
14962;DHT22;56489;53.166;10.864;2022-12-07T08:03:42;1.70;99.90
14962;DHT22;56489;53.166;10.864;2022-12-07T08:06:10;1.70;99.90
14962;DHT22;56489;53.166;10.864;2022-12-07T08:08:36;1.70;99.90
14962;DHT22;56489;53.166;10.864;2022-12-07T08:11:06;1.80;99.90
14962;DHT22;56489;53.166;10.864;2022-12-07T08:13:33;1.80;99.90
14962;DHT22;56489;53.166;10.864;2022-12-07T08:16:07;1.80;99.90
14962;DHT22;56489;53.166;10.864;2022-12-07T08:18:35;1.80;99.90
14962;DHT22;56489;53.166;10.864;2022-12-07T08:21:03;1.90;99.90
14962;DHT22;56489;53.166;10.864;2022-12-07T08:23:30;1.90;99.90
14962;DHT22;56489;53.166;10.864;2022-12-07T08:26:06;2.00;99.90
14962;DHT22;56489;53.166;10.864;2022-12-07T08:28:34;2.10;99.90
14962;DHT22;56489;53.166;10.864;2022-12-07T08:31:05;2.20;99.90
14962;DHT22;56489;53.166;10.864;2022-12-07T08:33:32;2.30;99.90
14962;DHT22;56489;53.166;10.864;2022-12-07T08:36:03;2.30;99.90
14962;DHT22;56489;53.166;10.864;2022-12-07T08:38:29;2.40;99.90
14962;DHT22;56489;53.166;10.864;2022-12-07T08:40:57;2.40;99.90
14962;DHT22;56489;53.166;10.864;2022-12-07T08:43:25;2.40;99.90
14962;DHT22;56489;53.166;10.864;2022-12-07T08:46:06;2.40;99.90
14962;DHT22;56489;53.166;10.864;2022-12-07T08:48:33;2.50;99.90
14962;DHT22;56489;53.166;10.864;2022-12-07T08:51:01;2.50;99.90
14962;DHT22;56489;53.166;10.864;2022-12-07T08:53:28;2.60;99.90
14962;DHT22;56489;53.166;10.864;2022-12-07T08:55:54;2.60;99.90
14962;DHT22;56489;53.166;10.864;2022-12-07T08:58:25;2.70;99.90
14962;DHT22;56489;53.166;10.864;2022-12-07T09:00:52;2.70;99.90
14962;DHT22;56489;53.166;10.864;2022-12-07T09:03:18;2.80;99.90
14962;DHT22;56489;53.166;10.864;2022-12-07T09:05:45;2.80;99.90
14962;DHT22;56489;53.166;10.864;2022-12-07T09:08:12;2.80;99.90
14962;DHT22;56489;53.166;10.864;2022-12-07T09:10:39;2.80;99.90
14962;DHT22;56489;53.166;10.864;2022-12-07T09:13:05;2.90;99.90
14962;DHT22;56489;53.166;10.864;2022-12-07T09:15:32;2.90;99.90
14962;DHT22;56489;53.166;10.864;2022-12-07T09:17:59;3.00;99.90
14962;DHT22;56489;53.166;10.864;2022-12-07T09:20:25;3.10;99.90
14962;DHT22;56489;53.166;10.864;2022-12-07T09:22:53;3.10;99.90
14962;DHT22;56489;53.166;10.864;2022-12-07T09:25:20;3.10;99.90
14962;DHT22;56489;53.166;10.864;2022-12-07T09:27:47;3.20;99.90
14962;DHT22;56489;53.166;10.864;2022-12-07T09:30:14;3.30;99.90
14962;DHT22;56489;53.166;10.864;2022-12-07T09:32:41;3.30;99.90
14962;DHT22;56489;53.166;10.864;2022-12-07T09:35:08;3.40;99.90
14962;DHT22;56489;53.166;10.864;2022-12-07T09:37:35;3.40;99.90
14962;DHT22;56489;53.166;10.864;2022-12-07T09:40:03;3.40;99.90
14962;DHT22;56489;53.166;10.864;2022-12-07T09:44:58;3.50;99.90
14962;DHT22;56489;53.166;10.864;2022-12-07T09:47:25;3.60;99.90
14962;DHT22;56489;53.166;10.864;2022-12-07T09:49:52;3.60;99.90
14962;DHT22;56489;53.166;10.864;2022-12-07T09:52:26;3.60;99.90
14962;DHT22;56489;53.166;10.864;2022-12-07T09:54:53;3.60;99.90
14962;DHT22;56489;53.166;10.864;2022-12-07T09:57:23;3.60;99.90
14962;DHT22;56489;53.166;10.864;2022-12-07T09:59:51;3.70;99.90
14962;DHT22;56489;53.166;10.864;2022-12-07T10:02:37;3.70;99.90
14962;DHT22;56489;53.166;10.864;2022-12-07T10:05:10;3.80;99.90
14962;DHT22;56489;53.166;10.864;2022-12-07T10:07:38;3.80;99.90
14962;DHT22;56489;53.166;10.864;2022-12-07T10:10:15;3.90;99.90
14962;DHT22;56489;53.166;10.864;2022-12-07T10:13:03;4.00;99.90
14962;DHT22;56489;53.166;10.864;2022-12-07T10:15:43;4.10;99.90
14962;DHT22;56489;53.166;10.864;2022-12-07T10:20:44;4.20;99.90
14962;DHT22;56489;53.166;10.864;2022-12-07T10:23:14;4.20;99.90
14962;DHT22;56489;53.166;10.864;2022-12-07T10:25:41;4.30;99.90
14962;DHT22;56489;53.166;10.864;2022-12-07T10:33:34;4.30;99.90
14962;DHT22;56489;53.166;10.864;2022-12-07T10:36:09;4.30;99.90
14962;DHT22;56489;53.166;10.864;2022-12-07T10:38:51;4.40;99.90
14962;DHT22;56489;53.166;10.864;2022-12-07T10:41:18;4.50;99.90
14962;DHT22;56489;53.166;10.864;2022-12-07T10:43:46;4.60;99.90
14962;DHT22;56489;53.166;10.864;2022-12-07T10:48:50;4.60;99.90
14962;DHT22;56489;53.166;10.864;2022-12-07T10:59:07;4.70;99.90
14962;DHT22;56489;53.166;10.864;2022-12-07T11:01:48;4.70;99.90
14962;DHT22;56489;53.166;10.864;2022-12-07T11:10:05;4.70;99.90
14962;DHT22;56489;53.166;10.864;2022-12-07T11:15:14;4.70;99.90
14962;DHT22;56489;53.166;10.864;2022-12-07T11:18:06;4.70;99.90
14962;DHT22;56489;53.166;10.864;2022-12-07T11:20:39;4.80;99.90
14962;DHT22;56489;53.166;10.864;2022-12-07T11:23:18;4.90;99.90
14962;DHT22;56489;53.166;10.864;2022-12-07T11:33:20;5.20;99.90
14962;DHT22;56489;53.166;10.864;2022-12-07T11:35:54;5.40;99.90
14962;DHT22;56489;53.166;10.864;2022-12-07T11:38:26;5.40;99.90
14962;DHT22;56489;53.166;10.864;2022-12-07T11:40:59;5.50;99.90
14962;DHT22;56489;53.166;10.864;2022-12-07T11:46:15;5.50;99.90
14962;DHT22;56489;53.166;10.864;2022-12-07T11:48:50;5.50;99.90
14962;DHT22;56489;53.166;10.864;2022-12-07T11:51:20;5.50;99.90
14962;DHT22;56489;53.166;10.864;2022-12-07T11:53:58;5.40;99.90
14962;DHT22;56489;53.166;10.864;2022-12-07T11:56:27;5.30;99.90
14962;DHT22;56489;53.166;10.864;2022-12-07T11:59:10;5.20;99.90
14962;DHT22;56489;53.166;10.864;2022-12-07T12:01:56;5.10;99.90
14962;DHT22;56489;53.166;10.864;2022-12-07T12:04:27;5.10;99.90
14962;DHT22;56489;53.166;10.864;2022-12-07T12:06:55;5.00;99.90
14962;DHT22;56489;53.166;10.864;2022-12-07T12:12:31;4.90;99.90
14962;DHT22;56489;53.166;10.864;2022-12-07T12:20:46;4.80;99.90
14962;DHT22;56489;53.166;10.864;2022-12-07T12:23:19;4.70;99.90
14962;DHT22;56489;53.166;10.864;2022-12-07T12:28:35;4.70;99.90
14962;DHT22;56489;53.166;10.864;2022-12-07T12:33:48;4.70;99.90
14962;DHT22;56489;53.166;10.864;2022-12-07T12:38:50;4.70;99.90
14962;DHT22;56489;53.166;10.864;2022-12-07T12:50:12;4.60;99.90
14962;DHT22;56489;53.166;10.864;2022-12-07T12:55:16;4.50;99.90
14962;DHT22;56489;53.166;10.864;2022-12-07T12:58:21;4.50;99.90
14962;DHT22;56489;53.166;10.864;2022-12-07T13:03:37;4.50;99.90
14962;DHT22;56489;53.166;10.864;2022-12-07T13:06:18;4.50;99.90
14962;DHT22;56489;53.166;10.864;2022-12-07T13:08:45;4.50;99.90
14962;DHT22;56489;53.166;10.864;2022-12-07T13:11:19;4.50;99.90
14962;DHT22;56489;53.166;10.864;2022-12-07T13:13:46;4.50;99.90
14962;DHT22;56489;53.166;10.864;2022-12-07T13:18:40;4.50;99.90
14962;DHT22;56489;53.166;10.864;2022-12-07T13:28:50;4.40;99.90
14962;DHT22;56489;53.166;10.864;2022-12-07T13:34:04;4.30;99.90
14962;DHT22;56489;53.166;10.864;2022-12-07T13:36:32;4.30;99.90
14962;DHT22;56489;53.166;10.864;2022-12-07T13:41:41;4.20;99.90
14962;DHT22;56489;53.166;10.864;2022-12-07T13:44:09;4.20;99.90
14962;DHT22;56489;53.166;10.864;2022-12-07T13:49:17;4.00;99.90
14962;DHT22;56489;53.166;10.864;2022-12-07T13:51:44;3.90;99.90
14962;DHT22;56489;53.166;10.864;2022-12-07T13:54:11;3.90;99.90
14962;DHT22;56489;53.166;10.864;2022-12-07T13:56:38;3.80;99.90
14962;DHT22;56489;53.166;10.864;2022-12-07T13:59:25;3.70;99.90
14962;DHT22;56489;53.166;10.864;2022-12-07T14:01:52;3.70;99.90
14962;DHT22;56489;53.166;10.864;2022-12-07T14:04:26;3.70;99.90
14962;DHT22;56489;53.166;10.864;2022-12-07T14:06:55;3.60;99.90
14962;DHT22;56489;53.166;10.864;2022-12-07T14:09:23;3.60;99.90
14962;DHT22;56489;53.166;10.864;2022-12-07T14:11:51;3.50;99.90
14962;DHT22;56489;53.166;10.864;2022-12-07T14:14:28;3.50;99.90
14962;DHT22;56489;53.166;10.864;2022-12-07T14:17:12;3.40;99.90
14962;DHT22;56489;53.166;10.864;2022-12-07T14:19:41;3.40;99.90
14962;DHT22;56489;53.166;10.864;2022-12-07T14:27:32;3.40;99.90
14962;DHT22;56489;53.166;10.864;2022-12-07T14:30:03;3.40;99.90
14962;DHT22;56489;53.166;10.864;2022-12-07T14:32:31;3.40;99.90
14962;DHT22;56489;53.166;10.864;2022-12-07T14:35:11;3.40;99.90
14962;DHT22;56489;53.166;10.864;2022-12-07T14:37:39;3.40;99.90
14962;DHT22;56489;53.166;10.864;2022-12-07T14:40:06;3.40;99.90
14962;DHT22;56489;53.166;10.864;2022-12-07T14:42:33;3.40;99.90
14962;DHT22;56489;53.166;10.864;2022-12-07T14:45:00;3.30;99.90
14962;DHT22;56489;53.166;10.864;2022-12-07T14:47:27;3.30;99.90
14962;DHT22;56489;53.166;10.864;2022-12-07T14:50:15;3.20;99.90
14962;DHT22;56489;53.166;10.864;2022-12-07T14:52:50;3.20;99.90
14962;DHT22;56489;53.166;10.864;2022-12-07T14:55:37;3.20;99.90
14962;DHT22;56489;53.166;10.864;2022-12-07T14:58:04;3.10;99.90
14962;DHT22;56489;53.166;10.864;2022-12-07T15:00:30;3.10;99.90
14962;DHT22;56489;53.166;10.864;2022-12-07T15:02:58;3.00;99.90
14962;DHT22;56489;53.166;10.864;2022-12-07T15:05:25;2.90;99.90
14962;DHT22;56489;53.166;10.864;2022-12-07T15:07:52;2.90;99.90
14962;DHT22;56489;53.166;10.864;2022-12-07T15:10:20;2.80;99.90
14962;DHT22;56489;53.166;10.864;2022-12-07T15:12:50;2.80;99.90
14962;DHT22;56489;53.166;10.864;2022-12-07T15:15:16;2.80;99.90
14962;DHT22;56489;53.166;10.864;2022-12-07T15:17:43;2.90;99.90
14962;DHT22;56489;53.166;10.864;2022-12-07T15:20:14;2.90;99.90
14962;DHT22;56489;53.166;10.864;2022-12-07T15:22:40;2.90;99.90
14962;DHT22;56489;53.166;10.864;2022-12-07T15:25:08;3.00;99.90
14962;DHT22;56489;53.166;10.864;2022-12-07T15:27:34;3.00;99.90
14962;DHT22;56489;53.166;10.864;2022-12-07T15:30:02;3.00;99.90
14962;DHT22;56489;53.166;10.864;2022-12-07T15:32:29;3.00;99.90
14962;DHT22;56489;53.166;10.864;2022-12-07T15:34:56;3.00;99.90
14962;DHT22;56489;53.166;10.864;2022-12-07T15:37:22;3.00;99.90
14962;DHT22;56489;53.166;10.864;2022-12-07T15:39:49;3.10;99.90
14962;DHT22;56489;53.166;10.864;2022-12-07T15:42:18;3.10;99.90
14962;DHT22;56489;53.166;10.864;2022-12-07T15:44:45;3.10;99.90
14962;DHT22;56489;53.166;10.864;2022-12-07T15:47:32;3.10;99.90
14962;DHT22;56489;53.166;10.864;2022-12-07T15:50:19;3.10;99.90
14962;DHT22;56489;53.166;10.864;2022-12-07T15:52:46;3.00;99.90
14962;DHT22;56489;53.166;10.864;2022-12-07T15:55:12;2.90;99.90
14962;DHT22;56489;53.166;10.864;2022-12-07T15:57:40;2.90;99.90
14962;DHT22;56489;53.166;10.864;2022-12-07T16:00:07;2.80;99.90
14962;DHT22;56489;53.166;10.864;2022-12-07T16:02:36;2.70;99.90
14962;DHT22;56489;53.166;10.864;2022-12-07T16:05:05;2.70;99.90
14962;DHT22;56489;53.166;10.864;2022-12-07T16:07:32;2.60;99.90
14962;DHT22;56489;53.166;10.864;2022-12-07T16:09:58;2.50;99.90
14962;DHT22;56489;53.166;10.864;2022-12-07T16:12:25;2.40;99.90
14962;DHT22;56489;53.166;10.864;2022-12-07T16:14:52;2.40;99.90
14962;DHT22;56489;53.166;10.864;2022-12-07T16:17:18;2.30;99.90
14962;DHT22;56489;53.166;10.864;2022-12-07T16:19:45;2.20;99.90
14962;DHT22;56489;53.166;10.864;2022-12-07T16:22:12;2.20;99.90
14962;DHT22;56489;53.166;10.864;2022-12-07T16:24:38;2.20;99.90
14962;DHT22;56489;53.166;10.864;2022-12-07T16:27:05;2.10;99.90
14962;DHT22;56489;53.166;10.864;2022-12-07T16:29:31;2.10;99.90
14962;DHT22;56489;53.166;10.864;2022-12-07T16:31:58;2.00;99.90
14962;DHT22;56489;53.166;10.864;2022-12-07T16:34:25;1.90;99.90
14962;DHT22;56489;53.166;10.864;2022-12-07T16:36:52;1.90;99.90
14962;DHT22;56489;53.166;10.864;2022-12-07T16:39:33;1.90;99.90
14962;DHT22;56489;53.166;10.864;2022-12-07T16:42:01;1.80;99.90
14962;DHT22;56489;53.166;10.864;2022-12-07T16:44:27;1.70;99.90
14962;DHT22;56489;53.166;10.864;2022-12-07T16:46:54;1.70;99.90
14962;DHT22;56489;53.166;10.864;2022-12-07T16:49:22;1.60;99.90
14962;DHT22;56489;53.166;10.864;2022-12-07T16:51:50;1.60;99.90
14962;DHT22;56489;53.166;10.864;2022-12-07T16:54:37;1.50;99.90
14962;DHT22;56489;53.166;10.864;2022-12-07T16:57:04;1.50;99.90
14962;DHT22;56489;53.166;10.864;2022-12-07T16:59:31;1.40;99.90
14962;DHT22;56489;53.166;10.864;2022-12-07T17:01:57;1.30;99.90
14962;DHT22;56489;53.166;10.864;2022-12-07T17:04:24;1.30;99.90
14962;DHT22;56489;53.166;10.864;2022-12-07T17:06:51;1.30;99.90
14962;DHT22;56489;53.166;10.864;2022-12-07T17:09:17;1.10;99.90
14962;DHT22;56489;53.166;10.864;2022-12-07T17:11:47;1.10;99.90
14962;DHT22;56489;53.166;10.864;2022-12-07T17:14:14;1.00;99.90
14962;DHT22;56489;53.166;10.864;2022-12-07T17:16:59;1.00;99.90
14962;DHT22;56489;53.166;10.864;2022-12-07T17:19:26;0.90;99.90
14962;DHT22;56489;53.166;10.864;2022-12-07T17:21:53;0.90;99.90
14962;DHT22;56489;53.166;10.864;2022-12-07T17:24:19;0.80;99.90
14962;DHT22;56489;53.166;10.864;2022-12-07T17:26:46;0.70;99.90
14962;DHT22;56489;53.166;10.864;2022-12-07T17:29:14;0.70;99.90
14962;DHT22;56489;53.166;10.864;2022-12-07T17:31:41;0.70;99.90
14962;DHT22;56489;53.166;10.864;2022-12-07T17:34:16;0.60;99.90
14962;DHT22;56489;53.166;10.864;2022-12-07T17:36:43;0.60;99.90
14962;DHT22;56489;53.166;10.864;2022-12-07T17:39:13;0.60;99.90
14962;DHT22;56489;53.166;10.864;2022-12-07T17:41:40;0.60;99.90